sensor_id;sensor_type;location;lat;lon;timestamp;temperature;humidity
40085;DHT22;25786;51.504;7.344;2023-03-23T00:01:16;11.90;86.70
40085;DHT22;25786;51.504;7.344;2023-03-23T00:03:45;11.90;86.90
40085;DHT22;25786;51.504;7.344;2023-03-23T00:06:11;11.90;86.90
40085;DHT22;25786;51.504;7.344;2023-03-23T00:08:42;12.00;86.60
40085;DHT22;25786;51.504;7.344;2023-03-23T00:11:11;12.00;86.30
40085;DHT22;25786;51.504;7.344;2023-03-23T00:13:39;12.00;86.40
40085;DHT22;25786;51.504;7.344;2023-03-23T00:16:05;11.90;86.60
40085;DHT22;25786;51.504;7.344;2023-03-23T00:18:31;11.90;86.40
40085;DHT22;25786;51.504;7.344;2023-03-23T00:20:56;11.90;86.70
40085;DHT22;25786;51.504;7.344;2023-03-23T00:23:25;12.00;86.60
40085;DHT22;25786;51.504;7.344;2023-03-23T00:25:51;12.10;86.30
40085;DHT22;25786;51.504;7.344;2023-03-23T00:28:24;12.10;86.00
40085;DHT22;25786;51.504;7.344;2023-03-23T00:30:54;12.10;85.60
40085;DHT22;25786;51.504;7.344;2023-03-23T00:33:22;12.10;85.80
40085;DHT22;25786;51.504;7.344;2023-03-23T00:35:49;12.10;85.60
40085;DHT22;25786;51.504;7.344;2023-03-23T00:38:18;12.10;85.40
40085;DHT22;25786;51.504;7.344;2023-03-23T00:40:44;12.10;85.40
40085;DHT22;25786;51.504;7.344;2023-03-23T00:43:10;12.10;85.00
40085;DHT22;25786;51.504;7.344;2023-03-23T00:45:39;12.20;84.90
40085;DHT22;25786;51.504;7.344;2023-03-23T00:48:04;12.10;84.60
40085;DHT22;25786;51.504;7.344;2023-03-23T00:50:30;12.10;84.70
40085;DHT22;25786;51.504;7.344;2023-03-23T00:52:56;12.10;84.50
40085;DHT22;25786;51.504;7.344;2023-03-23T00:55:22;12.10;84.40
40085;DHT22;25786;51.504;7.344;2023-03-23T00:57:48;12.10;84.40
40085;DHT22;25786;51.504;7.344;2023-03-23T01:00:15;12.10;84.70
40085;DHT22;25786;51.504;7.344;2023-03-23T01:02:41;12.10;84.80
40085;DHT22;25786;51.504;7.344;2023-03-23T01:05:09;12.20;84.60
40085;DHT22;25786;51.504;7.344;2023-03-23T01:07:35;12.20;84.50
40085;DHT22;25786;51.504;7.344;2023-03-23T01:10:01;12.10;84.40
40085;DHT22;25786;51.504;7.344;2023-03-23T01:12:27;12.10;84.50
40085;DHT22;25786;51.504;7.344;2023-03-23T01:14:53;12.10;84.60
40085;DHT22;25786;51.504;7.344;2023-03-23T01:17:18;12.10;84.60
40085;DHT22;25786;51.504;7.344;2023-03-23T01:19:44;12.00;84.80
40085;DHT22;25786;51.504;7.344;2023-03-23T01:22:10;12.00;84.90
40085;DHT22;25786;51.504;7.344;2023-03-23T01:24:35;12.00;85.00
40085;DHT22;25786;51.504;7.344;2023-03-23T01:27:01;12.10;84.70
40085;DHT22;25786;51.504;7.344;2023-03-23T01:29:34;12.10;84.70
40085;DHT22;25786;51.504;7.344;2023-03-23T01:32:00;12.10;84.50
40085;DHT22;25786;51.504;7.344;2023-03-23T01:34:26;12.10;84.50
40085;DHT22;25786;51.504;7.344;2023-03-23T01:36:51;12.00;84.80
40085;DHT22;25786;51.504;7.344;2023-03-23T01:39:17;12.10;84.70
40085;DHT22;25786;51.504;7.344;2023-03-23T01:41:42;12.00;85.00
40085;DHT22;25786;51.504;7.344;2023-03-23T01:45:11;12.00;85.10
40085;DHT22;25786;51.504;7.344;2023-03-23T01:46:53;12.00;85.30
40085;DHT22;25786;51.504;7.344;2023-03-23T01:49:27;12.00;85.30
40085;DHT22;25786;51.504;7.344;2023-03-23T01:51:56;12.00;85.30
40085;DHT22;25786;51.504;7.344;2023-03-23T01:54:23;12.00;85.30
40085;DHT22;25786;51.504;7.344;2023-03-23T01:56:50;12.00;85.60
40085;DHT22;25786;51.504;7.344;2023-03-23T01:59:17;12.00;85.40
40085;DHT22;25786;51.504;7.344;2023-03-23T02:01:43;12.00;85.30
40085;DHT22;25786;51.504;7.344;2023-03-23T02:04:10;12.00;85.40
40085;DHT22;25786;51.504;7.344;2023-03-23T02:06:36;12.00;85.50
40085;DHT22;25786;51.504;7.344;2023-03-23T02:09:02;12.10;85.30
40085;DHT22;25786;51.504;7.344;2023-03-23T02:11:27;12.10;85.10
40085;DHT22;25786;51.504;7.344;2023-03-23T02:13:53;12.10;84.80
40085;DHT22;25786;51.504;7.344;2023-03-23T02:27:14;12.00;83.30
40085;DHT22;25786;51.504;7.344;2023-03-23T02:32:27;12.00;83.00
40085;DHT22;25786;51.504;7.344;2023-03-23T02:34:58;12.10;83.30
40085;DHT22;25786;51.504;7.344;2023-03-23T02:37:31;12.10;83.30
40085;DHT22;25786;51.504;7.344;2023-03-23T02:39:58;12.00;83.60
40085;DHT22;25786;51.504;7.344;2023-03-23T02:42:32;12.00;83.90
40085;DHT22;25786;51.504;7.344;2023-03-23T02:44:59;12.00;84.20
40085;DHT22;25786;51.504;7.344;2023-03-23T02:47:27;12.00;84.20
40085;DHT22;25786;51.504;7.344;2023-03-23T02:49:54;11.90;84.60
40085;DHT22;25786;51.504;7.344;2023-03-23T02:52:26;11.90;85.00
40085;DHT22;25786;51.504;7.344;2023-03-23T02:54:52;11.90;84.90
40085;DHT22;25786;51.504;7.344;2023-03-23T02:57:19;11.80;85.30
40085;DHT22;25786;51.504;7.344;2023-03-23T02:59:45;11.90;85.50
40085;DHT22;25786;51.504;7.344;2023-03-23T03:02:16;11.80;85.20
40085;DHT22;25786;51.504;7.344;2023-03-23T03:04:45;11.90;85.10
40085;DHT22;25786;51.504;7.344;2023-03-23T03:07:15;11.90;85.40
40085;DHT22;25786;51.504;7.344;2023-03-23T03:09:53;11.80;85.80
40085;DHT22;25786;51.504;7.344;2023-03-23T03:12:32;11.80;85.80
40085;DHT22;25786;51.504;7.344;2023-03-23T03:15:06;11.80;85.80
40085;DHT22;25786;51.504;7.344;2023-03-23T03:17:34;11.90;85.50
40085;DHT22;25786;51.504;7.344;2023-03-23T03:20:02;11.90;85.20
40085;DHT22;25786;51.504;7.344;2023-03-23T03:22:39;11.90;85.10
40085;DHT22;25786;51.504;7.344;2023-03-23T03:25:07;11.80;85.30
40085;DHT22;25786;51.504;7.344;2023-03-23T03:27:33;11.90;85.20
40085;DHT22;25786;51.504;7.344;2023-03-23T03:30:01;11.90;84.90
40085;DHT22;25786;51.504;7.344;2023-03-23T03:32:31;11.80;84.80
40085;DHT22;25786;51.504;7.344;2023-03-23T03:35:00;11.80;85.10
40085;DHT22;25786;51.504;7.344;2023-03-23T03:37:25;11.80;84.80
40085;DHT22;25786;51.504;7.344;2023-03-23T03:39:51;11.70;85.10
40085;DHT22;25786;51.504;7.344;2023-03-23T03:42:17;11.70;85.10
40085;DHT22;25786;51.504;7.344;2023-03-23T03:44:42;11.70;85.00
40085;DHT22;25786;51.504;7.344;2023-03-23T03:47:08;11.80;84.90
40085;DHT22;25786;51.504;7.344;2023-03-23T03:49:33;11.70;85.00
40085;DHT22;25786;51.504;7.344;2023-03-23T03:51:59;11.70;84.80
40085;DHT22;25786;51.504;7.344;2023-03-23T03:54:24;11.70;84.80
40085;DHT22;25786;51.504;7.344;2023-03-23T03:56:50;11.80;84.40
40085;DHT22;25786;51.504;7.344;2023-03-23T03:59:17;11.90;84.30
40085;DHT22;25786;51.504;7.344;2023-03-23T04:01:42;11.90;83.70
40085;DHT22;25786;51.504;7.344;2023-03-23T04:04:08;11.90;83.90
40085;DHT22;25786;51.504;7.344;2023-03-23T04:06:33;11.90;83.70
40085;DHT22;25786;51.504;7.344;2023-03-23T04:09:03;11.80;83.40
40085;DHT22;25786;51.504;7.344;2023-03-23T04:11:31;12.00;83.30
40085;DHT22;25786;51.504;7.344;2023-03-23T04:13:56;12.00;83.20
40085;DHT22;25786;51.504;7.344;2023-03-23T04:16:22;12.00;82.70
40085;DHT22;25786;51.504;7.344;2023-03-23T04:18:47;11.90;82.80
40085;DHT22;25786;51.504;7.344;2023-03-23T04:21:13;12.00;82.60
40085;DHT22;25786;51.504;7.344;2023-03-23T04:23:39;12.00;82.40
40085;DHT22;25786;51.504;7.344;2023-03-23T04:26:05;12.00;82.50
40085;DHT22;25786;51.504;7.344;2023-03-23T04:28:31;12.00;82.20
40085;DHT22;25786;51.504;7.344;2023-03-23T04:30:59;12.00;82.20
40085;DHT22;25786;51.504;7.344;2023-03-23T04:33:26;12.00;82.20
40085;DHT22;25786;51.504;7.344;2023-03-23T04:35:52;12.10;82.10
40085;DHT22;25786;51.504;7.344;2023-03-23T04:38:18;12.10;82.20
40085;DHT22;25786;51.504;7.344;2023-03-23T04:40:45;12.00;82.30
40085;DHT22;25786;51.504;7.344;2023-03-23T04:43:11;12.10;81.70
40085;DHT22;25786;51.504;7.344;2023-03-23T04:45:38;12.10;81.90
40085;DHT22;25786;51.504;7.344;2023-03-23T04:48:07;12.10;81.90
40085;DHT22;25786;51.504;7.344;2023-03-23T04:50:33;12.00;82.00
40085;DHT22;25786;51.504;7.344;2023-03-23T04:52:59;12.00;82.30
40085;DHT22;25786;51.504;7.344;2023-03-23T04:55:32;12.10;81.90
40085;DHT22;25786;51.504;7.344;2023-03-23T04:58:04;12.10;81.50
40085;DHT22;25786;51.504;7.344;2023-03-23T05:00:31;12.00;81.80
40085;DHT22;25786;51.504;7.344;2023-03-23T05:02:57;12.10;81.30
40085;DHT22;25786;51.504;7.344;2023-03-23T05:05:24;12.10;81.60
40085;DHT22;25786;51.504;7.344;2023-03-23T05:07:50;12.10;81.90
40085;DHT22;25786;51.504;7.344;2023-03-23T05:10:16;12.10;81.70
40085;DHT22;25786;51.504;7.344;2023-03-23T05:12:41;12.10;81.70
40085;DHT22;25786;51.504;7.344;2023-03-23T05:15:07;12.10;81.90
40085;DHT22;25786;51.504;7.344;2023-03-23T05:17:33;12.10;81.50
40085;DHT22;25786;51.504;7.344;2023-03-23T05:19:59;12.10;81.40
40085;DHT22;25786;51.504;7.344;2023-03-23T05:22:28;12.10;81.60
40085;DHT22;25786;51.504;7.344;2023-03-23T05:24:53;12.10;81.40
40085;DHT22;25786;51.504;7.344;2023-03-23T05:27:19;12.10;81.40
40085;DHT22;25786;51.504;7.344;2023-03-23T05:29:45;12.10;81.40
40085;DHT22;25786;51.504;7.344;2023-03-23T05:32:16;12.10;81.10
40085;DHT22;25786;51.504;7.344;2023-03-23T05:34:42;12.20;80.90
40085;DHT22;25786;51.504;7.344;2023-03-23T05:37:11;12.20;81.20
40085;DHT22;25786;51.504;7.344;2023-03-23T05:39:39;12.20;81.30
40085;DHT22;25786;51.504;7.344;2023-03-23T05:42:19;12.10;81.10
40085;DHT22;25786;51.504;7.344;2023-03-23T05:45:09;12.10;80.80
40085;DHT22;25786;51.504;7.344;2023-03-23T05:47:36;12.10;80.90
40085;DHT22;25786;51.504;7.344;2023-03-23T05:50:06;12.10;81.00
40085;DHT22;25786;51.504;7.344;2023-03-23T05:52:32;12.20;80.80
40085;DHT22;25786;51.504;7.344;2023-03-23T05:55:00;12.20;80.60
40085;DHT22;25786;51.504;7.344;2023-03-23T05:57:38;12.20;80.30
40085;DHT22;25786;51.504;7.344;2023-03-23T06:00:07;12.30;80.20
40085;DHT22;25786;51.504;7.344;2023-03-23T06:02:53;12.30;80.20
40085;DHT22;25786;51.504;7.344;2023-03-23T06:05:22;12.30;80.00
40085;DHT22;25786;51.504;7.344;2023-03-23T06:07:51;12.30;79.90
40085;DHT22;25786;51.504;7.344;2023-03-23T06:10:17;12.20;80.10
40085;DHT22;25786;51.504;7.344;2023-03-23T06:12:42;12.30;80.00
40085;DHT22;25786;51.504;7.344;2023-03-23T06:15:09;12.40;79.90
40085;DHT22;25786;51.504;7.344;2023-03-23T06:17:34;12.40;79.40
40085;DHT22;25786;51.504;7.344;2023-03-23T06:20:04;12.40;79.60
40085;DHT22;25786;51.504;7.344;2023-03-23T06:22:35;12.40;79.90
40085;DHT22;25786;51.504;7.344;2023-03-23T06:25:10;12.40;79.40
40085;DHT22;25786;51.504;7.344;2023-03-23T06:27:38;12.40;79.70
40085;DHT22;25786;51.504;7.344;2023-03-23T06:30:04;12.50;79.40
40085;DHT22;25786;51.504;7.344;2023-03-23T06:32:32;12.40;79.40
40085;DHT22;25786;51.504;7.344;2023-03-23T06:34:58;12.40;79.80
40085;DHT22;25786;51.504;7.344;2023-03-23T06:37:24;12.40;79.80
40085;DHT22;25786;51.504;7.344;2023-03-23T06:39:50;12.40;79.50
40085;DHT22;25786;51.504;7.344;2023-03-23T06:42:17;12.40;79.70
40085;DHT22;25786;51.504;7.344;2023-03-23T06:44:43;12.50;79.90
40085;DHT22;25786;51.504;7.344;2023-03-23T06:47:08;12.50;79.60
40085;DHT22;25786;51.504;7.344;2023-03-23T06:49:34;12.50;79.10
40085;DHT22;25786;51.504;7.344;2023-03-23T06:52:00;12.60;78.90
40085;DHT22;25786;51.504;7.344;2023-03-23T06:54:27;12.60;78.60
40085;DHT22;25786;51.504;7.344;2023-03-23T06:56:52;12.60;79.10
40085;DHT22;25786;51.504;7.344;2023-03-23T06:59:18;12.60;78.10
40085;DHT22;25786;51.504;7.344;2023-03-23T07:01:44;12.70;78.20
40085;DHT22;25786;51.504;7.344;2023-03-23T07:04:12;12.60;78.20
40085;DHT22;25786;51.504;7.344;2023-03-23T07:06:37;12.70;78.20
40085;DHT22;25786;51.504;7.344;2023-03-23T07:09:03;12.80;78.10
40085;DHT22;25786;51.504;7.344;2023-03-23T07:11:29;12.80;77.90
40085;DHT22;25786;51.504;7.344;2023-03-23T07:13:54;12.80;78.00
40085;DHT22;25786;51.504;7.344;2023-03-23T07:16:20;12.80;78.00
40085;DHT22;25786;51.504;7.344;2023-03-23T07:18:46;12.80;77.80
40085;DHT22;25786;51.504;7.344;2023-03-23T07:21:11;12.90;77.30
40085;DHT22;25786;51.504;7.344;2023-03-23T07:23:37;12.80;77.30
40085;DHT22;25786;51.504;7.344;2023-03-23T07:26:02;12.90;77.30
40085;DHT22;25786;51.504;7.344;2023-03-23T07:28:28;12.90;76.90
40085;DHT22;25786;51.504;7.344;2023-03-23T07:30:54;12.90;76.90
40085;DHT22;25786;51.504;7.344;2023-03-23T07:33:19;12.90;77.30
40085;DHT22;25786;51.504;7.344;2023-03-23T07:35:45;12.90;76.90
40085;DHT22;25786;51.504;7.344;2023-03-23T07:38:10;12.90;76.70
40085;DHT22;25786;51.504;7.344;2023-03-23T07:40:36;13.00;76.60
40085;DHT22;25786;51.504;7.344;2023-03-23T07:43:03;13.00;76.50
40085;DHT22;25786;51.504;7.344;2023-03-23T07:45:29;13.00;75.80
40085;DHT22;25786;51.504;7.344;2023-03-23T07:47:54;13.10;75.70
40085;DHT22;25786;51.504;7.344;2023-03-23T07:50:20;13.10;75.70
40085;DHT22;25786;51.504;7.344;2023-03-23T07:52:50;13.10;75.70
40085;DHT22;25786;51.504;7.344;2023-03-23T07:55:15;13.00;75.40
40085;DHT22;25786;51.504;7.344;2023-03-23T07:57:44;13.10;75.00
40085;DHT22;25786;51.504;7.344;2023-03-23T08:00:10;13.10;75.20
40085;DHT22;25786;51.504;7.344;2023-03-23T08:02:39;13.10;75.10
40085;DHT22;25786;51.504;7.344;2023-03-23T08:05:04;13.10;74.90
40085;DHT22;25786;51.504;7.344;2023-03-23T08:07:30;13.20;75.40
40085;DHT22;25786;51.504;7.344;2023-03-23T08:09:55;13.10;74.90
40085;DHT22;25786;51.504;7.344;2023-03-23T08:12:21;13.10;74.60
40085;DHT22;25786;51.504;7.344;2023-03-23T08:14:46;13.20;74.40
40085;DHT22;25786;51.504;7.344;2023-03-23T08:17:13;13.30;74.50
40085;DHT22;25786;51.504;7.344;2023-03-23T08:19:39;13.20;74.30
40085;DHT22;25786;51.504;7.344;2023-03-23T08:22:05;13.20;74.60
40085;DHT22;25786;51.504;7.344;2023-03-23T08:24:31;13.30;74.10
40085;DHT22;25786;51.504;7.344;2023-03-23T08:26:58;13.30;74.10
40085;DHT22;25786;51.504;7.344;2023-03-23T08:29:23;13.20;73.50
40085;DHT22;25786;51.504;7.344;2023-03-23T08:31:50;13.30;73.20
40085;DHT22;25786;51.504;7.344;2023-03-23T08:34:15;13.30;73.50
40085;DHT22;25786;51.504;7.344;2023-03-23T08:36:41;13.30;73.50
40085;DHT22;25786;51.504;7.344;2023-03-23T08:39:12;13.30;73.70
40085;DHT22;25786;51.504;7.344;2023-03-23T08:41:40;13.40;73.00
40085;DHT22;25786;51.504;7.344;2023-03-23T08:44:08;13.50;73.10
40085;DHT22;25786;51.504;7.344;2023-03-23T08:46:34;13.50;73.00
40085;DHT22;25786;51.504;7.344;2023-03-23T08:49:00;13.50;71.90
40085;DHT22;25786;51.504;7.344;2023-03-23T08:51:25;13.60;72.10
40085;DHT22;25786;51.504;7.344;2023-03-23T08:53:51;13.60;71.70
40085;DHT22;25786;51.504;7.344;2023-03-23T08:56:17;13.60;71.90
40085;DHT22;25786;51.504;7.344;2023-03-23T08:58:43;13.60;71.40
40085;DHT22;25786;51.504;7.344;2023-03-23T09:01:09;13.70;71.10
40085;DHT22;25786;51.504;7.344;2023-03-23T09:03:44;13.60;71.60
40085;DHT22;25786;51.504;7.344;2023-03-23T09:06:10;13.60;71.20
40085;DHT22;25786;51.504;7.344;2023-03-23T09:08:38;13.80;70.30
40085;DHT22;25786;51.504;7.344;2023-03-23T09:11:12;14.00;70.00
40085;DHT22;25786;51.504;7.344;2023-03-23T09:14:07;14.00;70.10
40085;DHT22;25786;51.504;7.344;2023-03-23T09:16:56;14.00;69.90
40085;DHT22;25786;51.504;7.344;2023-03-23T09:19:31;14.00;70.00
40085;DHT22;25786;51.504;7.344;2023-03-23T09:22:04;14.00;70.30
40085;DHT22;25786;51.504;7.344;2023-03-23T09:24:41;14.00;69.60
40085;DHT22;25786;51.504;7.344;2023-03-23T09:27:06;14.00;69.70
40085;DHT22;25786;51.504;7.344;2023-03-23T09:29:32;14.00;69.60
40085;DHT22;25786;51.504;7.344;2023-03-23T09:31:58;13.90;69.40
40085;DHT22;25786;51.504;7.344;2023-03-23T09:34:23;13.80;70.00
40085;DHT22;25786;51.504;7.344;2023-03-23T09:36:49;13.80;69.70
40085;DHT22;25786;51.504;7.344;2023-03-23T09:39:15;13.80;70.20
40085;DHT22;25786;51.504;7.344;2023-03-23T09:44:38;13.80;70.10
40085;DHT22;25786;51.504;7.344;2023-03-23T09:47:16;13.80;69.60
40085;DHT22;25786;51.504;7.344;2023-03-23T09:49:52;13.90;69.80
40085;DHT22;25786;51.504;7.344;2023-03-23T09:52:19;14.00;69.80
40085;DHT22;25786;51.504;7.344;2023-03-23T10:02:35;14.00;69.10
40085;DHT22;25786;51.504;7.344;2023-03-23T10:07:46;14.00;69.00
40085;DHT22;25786;51.504;7.344;2023-03-23T10:10:13;14.00;69.60
40085;DHT22;25786;51.504;7.344;2023-03-23T10:17:54;13.90;73.20
40085;DHT22;25786;51.504;7.344;2023-03-23T10:20:21;13.80;74.70
40085;DHT22;25786;51.504;7.344;2023-03-23T10:22:54;13.60;74.90
40085;DHT22;25786;51.504;7.344;2023-03-23T10:25:22;13.10;75.00
40085;DHT22;25786;51.504;7.344;2023-03-23T10:27:55;12.50;78.00
40085;DHT22;25786;51.504;7.344;2023-03-23T10:30:33;12.00;80.50
40085;DHT22;25786;51.504;7.344;2023-03-23T10:33:04;11.60;82.20
40085;DHT22;25786;51.504;7.344;2023-03-23T10:35:33;11.40;83.10
40085;DHT22;25786;51.504;7.344;2023-03-23T10:38:01;11.30;84.70
40085;DHT22;25786;51.504;7.344;2023-03-23T10:40:31;11.20;84.70
40085;DHT22;25786;51.504;7.344;2023-03-23T10:43:00;11.10;84.60
40085;DHT22;25786;51.504;7.344;2023-03-23T10:45:27;11.10;85.40
40085;DHT22;25786;51.504;7.344;2023-03-23T10:50:36;11.20;86.50
40085;DHT22;25786;51.504;7.344;2023-03-23T10:53:07;11.30;86.90
40085;DHT22;25786;51.504;7.344;2023-03-23T10:55:37;11.30;85.10
40085;DHT22;25786;51.504;7.344;2023-03-23T11:00:30;11.30;84.90
40085;DHT22;25786;51.504;7.344;2023-03-23T11:05:41;11.60;85.00
40085;DHT22;25786;51.504;7.344;2023-03-23T11:08:14;11.60;84.90
40085;DHT22;25786;51.504;7.344;2023-03-23T11:10:53;11.50;84.30
40085;DHT22;25786;51.504;7.344;2023-03-23T11:13:20;11.60;84.50
40085;DHT22;25786;51.504;7.344;2023-03-23T11:15:47;11.70;85.00
40085;DHT22;25786;51.504;7.344;2023-03-23T11:18:18;11.80;85.10
40085;DHT22;25786;51.504;7.344;2023-03-23T11:20:44;12.00;85.20
40085;DHT22;25786;51.504;7.344;2023-03-23T11:25:50;11.80;85.40
40085;DHT22;25786;51.504;7.344;2023-03-23T11:28:18;11.80;85.50
40085;DHT22;25786;51.504;7.344;2023-03-23T11:30:44;11.70;85.80
40085;DHT22;25786;51.504;7.344;2023-03-23T11:33:10;11.80;86.60
40085;DHT22;25786;51.504;7.344;2023-03-23T11:35:37;11.70;86.70
40085;DHT22;25786;51.504;7.344;2023-03-23T11:38:03;11.60;86.10
40085;DHT22;25786;51.504;7.344;2023-03-23T11:40:31;11.60;86.50
40085;DHT22;25786;51.504;7.344;2023-03-23T11:42:58;11.50;86.60
40085;DHT22;25786;51.504;7.344;2023-03-23T11:50:39;11.60;86.90
40085;DHT22;25786;51.504;7.344;2023-03-23T11:53:13;11.60;86.20
40085;DHT22;25786;51.504;7.344;2023-03-23T11:58:11;11.50;86.60
40085;DHT22;25786;51.504;7.344;2023-03-23T12:00:40;11.50;87.00
40085;DHT22;25786;51.504;7.344;2023-03-23T12:03:09;11.50;87.00
40085;DHT22;25786;51.504;7.344;2023-03-23T12:06:26;11.50;87.40
40085;DHT22;25786;51.504;7.344;2023-03-23T12:16:05;11.60;87.80
40085;DHT22;25786;51.504;7.344;2023-03-23T12:21:27;12.00;87.10
40085;DHT22;25786;51.504;7.344;2023-03-23T12:26:30;12.00;87.10
40085;DHT22;25786;51.504;7.344;2023-03-23T12:28:59;12.10;86.80
40085;DHT22;25786;51.504;7.344;2023-03-23T12:41:47;11.80;87.00
40085;DHT22;25786;51.504;7.344;2023-03-23T12:44:14;11.80;87.00
40085;DHT22;25786;51.504;7.344;2023-03-23T12:49:13;11.60;87.80
40085;DHT22;25786;51.504;7.344;2023-03-23T12:51:46;11.70;88.10
40085;DHT22;25786;51.504;7.344;2023-03-23T12:56:42;11.80;88.20
40085;DHT22;25786;51.504;7.344;2023-03-23T13:01:56;11.90;88.20
40085;DHT22;25786;51.504;7.344;2023-03-23T13:04:27;12.00;88.20
40085;DHT22;25786;51.504;7.344;2023-03-23T13:06:56;12.00;88.50
40085;DHT22;25786;51.504;7.344;2023-03-23T13:09:45;12.20;88.20
40085;DHT22;25786;51.504;7.344;2023-03-23T13:12:13;12.20;88.00
40085;DHT22;25786;51.504;7.344;2023-03-23T13:17:35;12.20;88.20
40085;DHT22;25786;51.504;7.344;2023-03-23T13:20:13;12.10;88.20
40085;DHT22;25786;51.504;7.344;2023-03-23T13:28:21;12.50;88.00
40085;DHT22;25786;51.504;7.344;2023-03-23T13:30:58;12.40;87.60
40085;DHT22;25786;51.504;7.344;2023-03-23T13:33:24;12.40;87.30
40085;DHT22;25786;51.504;7.344;2023-03-23T13:35:49;12.20;87.40
40085;DHT22;25786;51.504;7.344;2023-03-23T13:38:21;12.20;87.70
40085;DHT22;25786;51.504;7.344;2023-03-23T13:40:47;12.20;87.70
40085;DHT22;25786;51.504;7.344;2023-03-23T13:43:12;12.30;87.10
40085;DHT22;25786;51.504;7.344;2023-03-23T13:45:45;12.50;86.90
40085;DHT22;25786;51.504;7.344;2023-03-23T13:50:44;12.60;86.60
40085;DHT22;25786;51.504;7.344;2023-03-23T13:53:14;12.70;86.40
40085;DHT22;25786;51.504;7.344;2023-03-23T13:55:41;12.80;86.90
40085;DHT22;25786;51.504;7.344;2023-03-23T14:05:40;12.90;85.50
40085;DHT22;25786;51.504;7.344;2023-03-23T14:10:36;13.00;85.70
40085;DHT22;25786;51.504;7.344;2023-03-23T14:13:03;12.90;85.90
40085;DHT22;25786;51.504;7.344;2023-03-23T14:15:30;12.90;86.00
40085;DHT22;25786;51.504;7.344;2023-03-23T14:17:56;12.90;85.90
40085;DHT22;25786;51.504;7.344;2023-03-23T14:20:26;12.90;86.20
40085;DHT22;25786;51.504;7.344;2023-03-23T14:22:55;13.10;86.00
40085;DHT22;25786;51.504;7.344;2023-03-23T14:25:21;13.10;86.00
40085;DHT22;25786;51.504;7.344;2023-03-23T14:27:50;13.20;85.70
40085;DHT22;25786;51.504;7.344;2023-03-23T14:30:18;13.30;85.50
40085;DHT22;25786;51.504;7.344;2023-03-23T14:32:44;13.50;85.40
40085;DHT22;25786;51.504;7.344;2023-03-23T14:35:15;13.60;85.40
40085;DHT22;25786;51.504;7.344;2023-03-23T14:37:42;13.50;85.60
40085;DHT22;25786;51.504;7.344;2023-03-23T14:40:10;13.50;85.60
40085;DHT22;25786;51.504;7.344;2023-03-23T14:42:37;13.50;85.60
40085;DHT22;25786;51.504;7.344;2023-03-23T14:45:04;13.60;85.30
40085;DHT22;25786;51.504;7.344;2023-03-23T14:47:41;13.70;85.70
40085;DHT22;25786;51.504;7.344;2023-03-23T14:50:26;13.60;85.50
40085;DHT22;25786;51.504;7.344;2023-03-23T14:52:55;13.50;86.20
40085;DHT22;25786;51.504;7.344;2023-03-23T14:55:22;13.40;86.80
40085;DHT22;25786;51.504;7.344;2023-03-23T14:57:48;13.40;86.40
40085;DHT22;25786;51.504;7.344;2023-03-23T15:00:14;13.30;86.90
40085;DHT22;25786;51.504;7.344;2023-03-23T15:05:15;13.20;87.00
40085;DHT22;25786;51.504;7.344;2023-03-23T15:07:43;13.20;87.10
40085;DHT22;25786;51.504;7.344;2023-03-23T15:10:14;13.10;86.70
40085;DHT22;25786;51.504;7.344;2023-03-23T15:12:42;13.10;86.60
40085;DHT22;25786;51.504;7.344;2023-03-23T15:15:14;13.20;85.80
40085;DHT22;25786;51.504;7.344;2023-03-23T15:17:41;13.30;85.00
40085;DHT22;25786;51.504;7.344;2023-03-23T15:20:19;13.40;85.20
40085;DHT22;25786;51.504;7.344;2023-03-23T15:22:46;13.40;85.20
40085;DHT22;25786;51.504;7.344;2023-03-23T15:25:18;13.30;85.10
40085;DHT22;25786;51.504;7.344;2023-03-23T15:27:58;13.40;85.30
40085;DHT22;25786;51.504;7.344;2023-03-23T15:30:35;13.50;85.20
40085;DHT22;25786;51.504;7.344;2023-03-23T15:33:03;13.60;84.00
40085;DHT22;25786;51.504;7.344;2023-03-23T15:35:33;13.60;84.50
40085;DHT22;25786;51.504;7.344;2023-03-23T15:37:59;13.80;83.50
40085;DHT22;25786;51.504;7.344;2023-03-23T15:40:26;13.80;83.10
40085;DHT22;25786;51.504;7.344;2023-03-23T15:45:53;13.70;83.10
40085;DHT22;25786;51.504;7.344;2023-03-23T15:48:21;13.60;82.40
40085;DHT22;25786;51.504;7.344;2023-03-23T15:50:47;13.70;82.60
40085;DHT22;25786;51.504;7.344;2023-03-23T15:53:19;13.60;82.20
40085;DHT22;25786;51.504;7.344;2023-03-23T15:55:45;13.60;81.80
40085;DHT22;25786;51.504;7.344;2023-03-23T15:58:12;13.60;81.50
40085;DHT22;25786;51.504;7.344;2023-03-23T16:00:37;13.60;80.90
40085;DHT22;25786;51.504;7.344;2023-03-23T16:03:06;13.60;81.20
40085;DHT22;25786;51.504;7.344;2023-03-23T16:05:32;13.60;80.40
40085;DHT22;25786;51.504;7.344;2023-03-23T16:07:58;13.50;80.80
40085;DHT22;25786;51.504;7.344;2023-03-23T16:10:24;13.50;81.10
40085;DHT22;25786;51.504;7.344;2023-03-23T16:12:50;13.40;81.00
40085;DHT22;25786;51.504;7.344;2023-03-23T16:15:17;13.40;81.20
40085;DHT22;25786;51.504;7.344;2023-03-23T16:17:42;13.40;80.50
40085;DHT22;25786;51.504;7.344;2023-03-23T16:22:40;13.40;80.30
40085;DHT22;25786;51.504;7.344;2023-03-23T16:25:06;13.40;80.40
40085;DHT22;25786;51.504;7.344;2023-03-23T16:27:31;13.30;81.20
40085;DHT22;25786;51.504;7.344;2023-03-23T16:29:57;13.30;81.10
40085;DHT22;25786;51.504;7.344;2023-03-23T16:32:25;13.30;80.90
40085;DHT22;25786;51.504;7.344;2023-03-23T16:34:50;13.30;81.00
40085;DHT22;25786;51.504;7.344;2023-03-23T16:37:16;13.30;80.60
40085;DHT22;25786;51.504;7.344;2023-03-23T16:39:41;13.40;80.80
40085;DHT22;25786;51.504;7.344;2023-03-23T16:42:07;13.40;80.10
40085;DHT22;25786;51.504;7.344;2023-03-23T16:44:32;13.40;80.70
40085;DHT22;25786;51.504;7.344;2023-03-23T16:46:58;13.40;80.60
40085;DHT22;25786;51.504;7.344;2023-03-23T16:49:23;13.30;81.00
40085;DHT22;25786;51.504;7.344;2023-03-23T16:51:48;13.30;81.30
40085;DHT22;25786;51.504;7.344;2023-03-23T16:54:14;13.30;81.00
40085;DHT22;25786;51.504;7.344;2023-03-23T16:56:40;13.30;81.10
40085;DHT22;25786;51.504;7.344;2023-03-23T16:59:05;13.30;81.20
40085;DHT22;25786;51.504;7.344;2023-03-23T17:01:31;13.20;81.30
40085;DHT22;25786;51.504;7.344;2023-03-23T17:03:56;13.20;81.30
40085;DHT22;25786;51.504;7.344;2023-03-23T17:06:22;13.20;81.60
40085;DHT22;25786;51.504;7.344;2023-03-23T17:08:47;13.20;81.80
40085;DHT22;25786;51.504;7.344;2023-03-23T17:11:13;13.10;82.10
40085;DHT22;25786;51.504;7.344;2023-03-23T17:13:38;13.10;82.00
40085;DHT22;25786;51.504;7.344;2023-03-23T17:16:04;13.20;81.90
40085;DHT22;25786;51.504;7.344;2023-03-23T17:18:29;13.10;81.90
40085;DHT22;25786;51.504;7.344;2023-03-23T17:20:55;13.10;82.20
40085;DHT22;25786;51.504;7.344;2023-03-23T17:23:21;13.10;82.40
40085;DHT22;25786;51.504;7.344;2023-03-23T17:25:47;13.10;81.80